Time;durP1;ratioP1;P1;durP2;ratioP2;P2;SDS_P1;SDS_P2;PMS_P1;PMS_P2;Temp;Humidity;BMP_temperature;BMP_pressure;BME280_temperature;BME280_humidity;BME280_pressure;Samples;Min_cycle;Max_cycle;Signal;HPM_P1;HPM_P2
2022/12/04 00:01:27;;;;;;;12.33;5.33;;;;;;;-3.12;76.67;102584.39;1694256;80;21147;-55
2022/12/04 00:03:58;;;;;;;12.78;5.78;;;;;;;-3.18;76.41;102587.30;1765419;80;21568;-55
2022/12/04 00:06:28;;;;;;;12.00;5.28;;;;;;;-3.27;76.40;102585.79;1785010;79;21484;-54
2022/12/04 00:08:58;;;;;;;13.30;6.00;;;;;;;-3.32;76.56;102590.44;1784921;80;21507;-54
2022/12/04 00:11:30;;;;;;;10.80;5.42;;;;;;;-3.33;76.76;102590.91;1784914;80;21499;-55
2022/12/04 00:14:00;;;;;;;11.80;5.40;;;;;;;-3.27;76.84;102597.86;1784947;79;21164;-55
2022/12/04 00:16:31;;;;;;;11.80;5.25;;;;;;;-3.18;77.00;102600.23;1784258;80;21755;-56
2022/12/04 00:19:02;;;;;;;12.40;5.95;;;;;;;-3.14;76.92;102600.53;1765247;80;21112;-55
2022/12/04 00:21:32;;;;;;;11.00;5.42;;;;;;;-3.14;76.82;102596.51;1765455;80;21079;-55
2022/12/04 00:24:01;;;;;;;11.33;6.05;;;;;;;-3.15;76.67;102600.59;1784953;80;21178;-56
2022/12/04 00:26:30;;;;;;;15.03;5.53;;;;;;;-3.15;76.77;102603.27;1765491;80;21088;-55
2022/12/04 00:29:03;;;;;;;10.93;5.12;;;;;;;-3.11;76.77;102602.22;1785090;79;21556;-55
2022/12/04 00:31:33;;;;;;;12.60;5.50;;;;;;;-3.12;76.63;102601.34;1765567;80;21139;-54
2022/12/04 00:34:03;;;;;;;11.63;5.58;;;;;;;-3.10;76.57;102599.95;1765323;80;21167;-54
2022/12/04 00:36:34;;;;;;;14.07;5.50;;;;;;;-3.13;76.38;102598.27;1784857;79;21506;-55
2022/12/04 00:39:04;;;;;;;10.48;5.10;;;;;;;-3.19;76.15;102593.13;1785065;80;21151;-57
2022/12/04 00:41:34;;;;;;;10.60;5.00;;;;;;;-3.23;76.35;102597.72;1765907;80;21554;-55
2022/12/04 00:44:04;;;;;;;9.50;4.95;;;;;;;-3.18;76.34;102603.38;1785130;80;21123;-55
2022/12/04 00:46:33;;;;;;;14.65;5.72;;;;;;;-3.15;76.29;102608.17;1785067;80;21111;-56
2022/12/04 00:49:03;;;;;;;11.63;5.70;;;;;;;-3.17;76.37;102606.00;1784860;80;21111;-55
2022/12/04 00:51:33;;;;;;;14.33;5.45;;;;;;;-3.17;76.37;102604.66;1785049;80;21249;-55
2022/12/04 00:54:03;;;;;;;12.18;5.42;;;;;;;-3.21;76.09;102597.66;1785099;80;21087;-56
2022/12/04 00:56:33;;;;;;;11.90;6.08;;;;;;;-3.30;76.23;102597.97;1784962;80;21143;-56
2022/12/04 00:59:02;;;;;;;11.40;5.47;;;;;;;-3.32;76.41;102606.53;1784923;80;21609;-55
2022/12/04 01:01:31;;;;;;;12.50;5.78;;;;;;;-3.32;76.53;102599.82;1785518;80;21119;-54
2022/12/04 01:04:02;;;;;;;10.95;5.78;;;;;;;-3.33;76.73;102601.62;1788193;80;21083;-55
2022/12/04 01:06:33;;;;;;;13.48;6.20;;;;;;;-3.32;76.81;102606.53;1788329;80;21546;-55
2022/12/04 01:09:04;;;;;;;13.90;5.40;;;;;;;-3.30;76.74;102601.98;1788234;80;21123;-54
2022/12/04 01:11:33;;;;;;;11.30;5.58;;;;;;;-3.37;76.53;102598.65;1788255;80;21142;-56
2022/12/04 01:14:02;;;;;;;13.00;6.30;;;;;;;-3.43;76.65;102597.99;1788388;80;21604;-55
2022/12/04 01:16:36;;;;;;;11.93;5.67;;;;;;;-3.46;77.00;102602.13;1788385;80;21546;-55
2022/12/04 01:19:08;;;;;;;14.38;5.87;;;;;;;-3.41;77.26;102601.49;1788389;80;21111;-55
2022/12/04 01:21:37;;;;;;;13.43;6.90;;;;;;;-3.37;77.17;102599.11;1771113;80;21087;-54
2022/12/04 01:24:07;;;;;;;12.95;6.30;;;;;;;-3.44;77.15;102604.28;1788475;80;21499;-56
2022/12/04 01:26:36;;;;;;;12.40;5.53;;;;;;;-3.53;77.31;102606.35;1788230;79;21095;-56
2022/12/04 01:29:06;;;;;;;12.03;5.72;;;;;;;-3.53;77.47;102607.69;1788388;80;21578;-55
2022/12/04 01:31:35;;;;;;;15.40;6.40;;;;;;;-3.50;77.61;102601.34;1788466;80;21159;-54
2022/12/04 01:34:05;;;;;;;16.97;6.40;;;;;;;-3.49;77.71;102598.20;1788391;80;21538;-55
2022/12/04 01:36:35;;;;;;;14.63;6.55;;;;;;;-3.48;77.85;102596.81;1788377;80;21158;-56
2022/12/04 01:39:04;;;;;;;13.35;6.10;;;;;;;-3.47;77.87;102609.28;1684107;84;21095;-55
2022/12/04 01:41:34;;;;;;;15.32;6.53;;;;;;;-3.47;78.10;102607.94;1707131;84;21550;-57
2022/12/04 01:44:19;;;;;;;11.73;5.67;;;;;;;-3.47;78.14;102597.22;1707067;84;21259;-56
2022/12/04 01:46:53;;;;;;;15.05;6.75;;;;;;;-3.50;78.11;102605.37;1634393;88;21146;-55
2022/12/04 01:49:34;;;;;;;11.83;5.80;;;;;;;-3.49;78.23;102607.59;1684439;84;21130;-55
2022/12/04 01:52:20;;;;;;;13.80;6.22;;;;;;;-3.46;78.33;102611.03;1707300;84;21550;-55
2022/12/04 01:54:53;;;;;;;14.25;5.87;;;;;;;-3.48;78.22;102608.00;1707393;84;21162;-54
2022/12/04 01:57:25;;;;;;;12.47;5.83;;;;;;;-3.50;78.33;102601.34;1732434;80;21561;-56
2022/12/04 01:59:59;;;;;;;14.38;5.87;;;;;;;-3.55;78.32;102611.36;1788361;80;21193;-56
2022/12/04 02:02:39;;;;;;;10.45;5.20;;;;;;;-3.56;78.52;102604.24;1788326;80;21182;-55
2022/12/04 02:05:14;;;;;;;12.25;6.33;;;;;;;-3.60;78.43;102607.95;1788386;80;21095;-54
2022/12/04 02:07:45;;;;;;;12.75;5.90;;;;;;;-3.71;78.45;102606.98;1788309;80;21115;-55
2022/12/04 02:10:16;;;;;;;15.08;6.08;;;;;;;-3.71;78.79;102602.09;1711868;80;21115;-55
2022/12/04 02:13:00;;;;;;;13.93;5.95;;;;;;;-3.66;78.81;102605.03;1788354;80;21103;-56
2022/12/04 02:15:47;;;;;;;15.45;6.15;;;;;;;-3.59;78.93;102599.87;1788426;80;21151;-54
2022/12/04 02:18:49;;;;;;;12.23;5.60;;;;;;;-3.55;78.77;102605.53;1788391;79;21115;-56
2022/12/04 02:21:38;;;;;;;12.63;5.33;;;;;;;-3.51;78.61;102600.94;1788483;80;21115;-55
2022/12/04 02:24:27;;;;;;;12.23;6.03;;;;;;;-3.49;78.64;102604.91;1788283;80;21138;-55
2022/12/04 02:27:08;;;;;;;12.03;5.50;;;;;;;-3.53;78.60;102606.35;1788549;80;21146;-57
2022/12/04 02:29:54;;;;;;;13.20;6.25;;;;;;;-3.57;78.61;102610.06;1787790;80;21107;-55
2022/12/04 02:33:06;;;;;;;12.05;5.83;;;;;;;-3.63;78.69;102610.74;1788265;80;21542;-55
2022/12/04 02:35:40;;;;;;;11.60;5.90;;;;;;;-3.61;78.93;102612.44;1788220;80;21099;-53
2022/12/04 02:38:37;;;;;;;9.95;5.60;;;;;;;-3.64;79.05;102615.23;1788474;80;21104;-55
2022/12/04 02:41:12;;;;;;;10.82;4.85;;;;;;;-3.64;79.13;102613.89;1788456;80;21150;-55
2022/12/04 02:43:45;;;;;;;11.68;6.10;;;;;;;-3.59;78.95;102619.09;1788322;80;21162;-54
2022/12/04 02:46:19;;;;;;;14.00;6.42;;;;;;;-3.60;78.87;102611.98;1788445;80;21107;-55
2022/12/04 02:48:53;;;;;;;10.75;5.75;;;;;;;-3.59;78.62;102609.71;1770913;80;21566;-56
2022/12/04 02:51:22;;;;;;;13.62;5.70;;;;;;;-3.57;78.71;102611.88;1684223;84;21107;-56
2022/12/04 02:53:57;;;;;;;9.95;4.78;;;;;;;-3.54;78.63;102616.66;1613152;88;21182;-55
2022/12/04 02:56:29;;;;;;;11.68;5.78;;;;;;;-3.53;78.46;102615.73;1707073;84;21123;-56
2022/12/04 02:59:06;;;;;;;13.32;6.20;;;;;;;-3.49;78.51;102631.70;1662419;84;21147;-55
2022/12/04 03:01:38;;;;;;;;;;;;;;;-3.50;78.33;102621.45;1615653;88;21174;-55
2022/12/04 03:04:18;;;;;;;11.97;5.83;;;;;;;-3.54;78.31;102618.00;1627401;87;20149;-55
2022/12/04 03:06:52;;;;;;;13.38;5.58;;;;;;;-3.58;78.44;102612.34;1628144;87;21594;-53
2022/12/04 03:09:33;;;;;;;13.13;6.60;;;;;;;-3.56;78.39;102617.64;1607638;88;21225;-54
2022/12/04 03:12:17;;;;;;;14.18;5.80;;;;;;;-3.59;78.47;102628.00;1702083;84;21135;-56
2022/12/04 03:15:00;;;;;;;13.13;6.15;;;;;;;-3.58;78.65;102628.41;1701703;84;21179;-54
2022/12/04 03:17:38;;;;;;;14.53;6.10;;;;;;;-3.60;78.36;102625.38;1774866;80;21151;-57
2022/12/04 03:20:10;;;;;;;12.63;6.37;;;;;;;-3.67;78.25;102631.41;1701728;83;21139;-56
2022/12/04 03:22:43;;;;;;;14.87;6.22;;;;;;;-3.66;78.35;102621.09;1702025;84;21150;-57
2022/12/04 03:25:12;;;;;;;13.93;5.87;;;;;;;-3.68;78.47;102616.26;1627849;88;21636;-55
2022/12/04 03:27:53;;;;;;;11.83;6.03;;;;;;;-3.65;78.47;102621.52;1701870;84;21952;-57
2022/12/04 03:30:23;;;;;;;11.13;5.83;;;;;;;-3.67;78.37;102619.34;1684849;84;21546;-55
2022/12/04 03:33:09;;;;;;;11.05;5.42;;;;;;;-3.69;78.32;102619.87;1701675;84;21104;-55
2022/12/04 03:36:02;;;;;;;13.18;6.30;;;;;;;-3.71;78.41;102612.81;1632967;86;21270;-56
2022/12/04 03:38:57;;;;;;;12.15;6.20;;;;;;;-3.73;78.55;102620.02;1674563;84;21123;-56
2022/12/04 03:41:32;;;;;;;11.25;6.20;;;;;;;-3.73;78.74;102624.92;1627874;88;21143;-56
2022/12/04 03:44:07;;;;;;;12.63;5.50;;;;;;;-3.76;78.62;102619.66;1701945;84;21276;-56
2022/12/04 03:47:05;;;;;;;11.40;5.45;;;;;;;-3.79;78.80;102634.95;1627745;88;21147;-54
2022/12/04 03:49:59;;;;;;;16.80;6.62;;;;;;;-3.87;78.80;102629.39;1701838;84;21183;-54
2022/12/04 03:52:51;;;;;;;14.28;6.62;;;;;;;-3.89;79.30;102625.89;1701373;84;21186;-56
2022/12/04 03:55:53;;;;;;;13.83;6.60;;;;;;;-3.84;79.48;102632.44;1763847;81;21100;-56
2022/12/04 03:58:27;;;;;;;14.65;6.28;;;;;;;-3.80;79.39;102627.39;1774521;81;21584;-55
2022/12/04 04:00:58;;;;;;;13.15;6.47;;;;;;;-3.85;79.52;102636.04;1763823;81;21524;-56
2022/12/04 04:03:31;;;;;;;12.63;6.23;;;;;;;-3.90;79.64;102639.33;1774478;80;21155;-54
2022/12/04 04:06:11;;;;;;;13.70;6.50;;;;;;;-3.88;79.85;102645.52;1764065;81;21187;-55
2022/12/04 04:08:44;;;;;;;18.42;6.72;;;;;;;-3.86;79.99;102642.32;1774708;79;21223;-54
2022/12/04 04:11:20;;;;;;;15.32;6.80;;;;;;;-3.89;80.13;102631.71;1701814;84;21296;-54
2022/12/04 04:25:39;;;;;;;15.20;5.90;;;;;;;-3.84;80.54;102632.44;1701813;84;21699;-56
2022/12/04 04:28:40;;;;;;;16.55;7.28;;;;;;;-3.82;80.46;102635.94;1627917;88;21143;-59
2022/12/04 04:31:18;;;;;;;14.20;5.55;;;;;;;-3.86;80.39;102633.82;1774545;80;21217;-56
2022/12/04 04:34:21;;;;;;;13.80;6.28;;;;;;;-3.87;80.54;102635.21;1763674;81;21166;-56
2022/12/04 04:37:05;;;;;;;14.87;6.75;;;;;;;-3.89;80.42;102636.61;1774688;81;21115;-55
2022/12/04 04:39:51;;;;;;;12.37;6.08;;;;;;;-3.95;80.54;102643.47;1763800;81;21120;-57
2022/12/04 04:42:33;;;;;;;13.00;6.10;;;;;;;-3.97;80.68;102645.78;1765637;81;21246;-56
2022/12/04 04:45:27;;;;;;;15.80;6.22;;;;;;;-3.98;80.67;102645.37;1774511;81;21151;-55
2022/12/04 04:48:08;;;;;;;16.80;7.05;;;;;;;-3.99;80.80;102651.19;1774763;80;21108;-55
2022/12/04 04:50:37;;;;;;;17.15;6.25;;;;;;;-4.01;80.87;102638.77;1774449;80;21143;-56
2022/12/04 04:53:15;;;;;;;12.90;6.65;;;;;;;-4.00;81.14;102634.70;1763815;81;21554;-54
2022/12/04 04:55:45;;;;;;;13.62;6.70;;;;;;;-3.97;81.24;102639.96;1774692;81;21183;-56
2022/12/04 04:58:18;;;;;;;12.60;6.33;;;;;;;-3.97;81.14;102645.31;1774436;81;21108;-54
2022/12/04 05:01:02;;;;;;;15.75;6.85;;;;;;;-3.99;81.12;102650.30;1774465;80;21527;-56
2022/12/04 05:03:32;;;;;;;14.23;6.15;;;;;;;-4.04;81.09;102650.45;1781263;80;21103;-55
2022/12/04 05:06:01;;;;;;;17.95;6.50;;;;;;;-4.04;81.23;102653.59;1788267;80;21307;-55
2022/12/04 05:08:31;;;;;;;12.65;6.50;;;;;;;-4.04;81.23;102653.59;1770741;80;21541;-55
2022/12/04 05:11:01;;;;;;;14.33;6.47;;;;;;;-4.06;81.21;102659.46;1707136;84;21142;-54
2022/12/04 05:13:31;;;;;;;13.58;6.45;;;;;;;-4.12;81.11;102654.30;1612870;88;21178;-56
2022/12/04 05:16:02;;;;;;;16.55;7.17;;;;;;;-4.17;81.27;102662.48;1660980;84;21218;-55
2022/12/04 05:18:34;;;;;;;15.50;6.67;;;;;;;-4.19;81.43;102661.19;1634752;88;21143;-57
2022/12/04 05:21:17;;;;;;;15.72;6.17;;;;;;;-4.15;81.52;102661.50;1707062;84;21227;-55
2022/12/04 05:23:49;;;;;;;14.15;6.47;;;;;;;-4.13;81.49;102661.92;1707165;84;21142;-55
2022/12/04 05:26:18;;;;;;;14.55;6.28;;;;;;;-4.16;81.51;102645.03;1634576;88;21146;-55
2022/12/04 05:28:47;;;;;;;13.68;6.70;;;;;;;-4.19;81.59;102658.52;1735033;80;21119;-55
2022/12/04 05:31:17;;;;;;;14.50;6.53;;;;;;;-4.24;81.74;102654.23;1771109;80;21585;-56
2022/12/04 05:33:47;;;;;;;14.73;6.85;;;;;;;-4.22;81.96;102658.61;1771076;80;21134;-55
2022/12/04 05:36:18;;;;;;;18.20;6.40;;;;;;;-4.21;82.12;102664.37;1788379;80;21370;-56
2022/12/04 05:38:48;;;;;;;17.15;6.65;;;;;;;-4.20;82.01;102653.20;1788519;80;21107;-56
2022/12/04 05:41:20;;;;;;;13.98;6.67;;;;;;;-4.24;82.00;102667.14;1788337;79;21519;-55
2022/12/04 05:43:50;;;;;;;13.45;5.92;;;;;;;-4.24;82.06;102659.58;1788343;79;21585;-55
2022/12/04 05:46:19;;;;;;;11.85;5.53;;;;;;;-4.22;82.14;102672.45;1788361;80;21067;-57
2022/12/04 05:48:49;;;;;;;15.90;6.30;;;;;;;-4.28;82.00;102657.45;1788535;80;21110;-55
2022/12/04 05:51:18;;;;;;;13.78;6.10;;;;;;;-4.33;81.80;102650.03;1788493;79;21099;-54
2022/12/04 05:53:49;;;;;;;12.63;6.30;;;;;;;-4.38;81.91;102657.33;1770609;80;21114;-58
2022/12/04 05:56:18;;;;;;;16.05;6.58;;;;;;;-4.36;82.01;102660.83;1770198;80;21126;-55
2022/12/04 05:58:48;;;;;;;12.63;5.60;;;;;;;-4.30;82.21;102667.34;1788341;80;21142;-57
2022/12/04 06:01:21;;;;;;;12.82;5.00;;;;;;;-4.23;82.12;102672.04;1788551;80;21115;-55
2022/12/04 06:03:50;;;;;;;11.78;5.87;;;;;;;-4.27;81.91;102660.55;1788356;80;21138;-56
2022/12/04 06:06:25;;;;;;;13.75;5.83;;;;;;;-4.35;81.90;102670.61;1788160;80;21174;-55
2022/12/04 06:08:56;;;;;;;15.40;6.15;;;;;;;-4.35;81.90;102670.61;1770919;80;21134;-56
2022/12/04 06:11:29;;;;;;;13.43;6.33;;;;;;;-4.34;82.02;102675.51;1788274;80;21138;-55
2022/12/04 06:14:00;;;;;;;15.10;6.42;;;;;;;-4.37;82.03;102672.92;1788483;80;21119;-57
2022/12/04 06:16:37;;;;;;;15.25;6.47;;;;;;;-4.39;81.97;102677.45;1788502;80;21130;-57
2022/12/04 06:19:15;;;;;;;18.80;6.47;;;;;;;-4.42;81.94;102665.03;1772119;80;21643;-56
2022/12/04 06:21:47;;;;;;;17.23;6.65;;;;;;;-4.39;82.17;102670.30;1771048;80;21538;-57
2022/12/04 06:24:22;;;;;;;13.05;6.25;;;;;;;-4.34;82.28;102675.51;1788379;80;21180;-56
2022/12/04 06:26:57;;;;;;;13.83;6.20;;;;;;;-4.33;82.41;102678.13;1788310;80;21624;-56
2022/12/04 06:29:28;;;;;;;12.93;5.67;;;;;;;-4.33;82.29;102678.13;1785834;80;21590;-55
2022/12/04 06:31:58;;;;;;;14.75;6.37;;;;;;;-4.35;82.24;102675.09;1788489;80;21095;-56
2022/12/04 06:34:28;;;;;;;13.75;5.92;;;;;;;-4.49;82.14;102688.42;1788305;80;21193;-56
2022/12/04 06:36:58;;;;;;;14.73;6.40;;;;;;;-4.49;82.14;102688.42;1788037;80;21131;-55
2022/12/04 06:39:27;;;;;;;15.28;6.22;;;;;;;-4.51;82.62;102692.94;1788266;80;21739;-56
2022/12/04 06:41:57;;;;;;;15.28;6.65;;;;;;;-4.48;82.67;102694.19;1788315;80;21519;-55
2022/12/04 06:44:26;;;;;;;16.62;6.60;;;;;;;-4.45;82.67;102689.67;1788522;80;21507;-54
2022/12/04 06:46:56;;;;;;;15.18;6.60;;;;;;;-4.40;82.78;102693.08;1788329;80;21138;-55
2022/12/04 06:49:28;;;;;;;16.07;6.85;;;;;;;-4.37;82.58;102695.20;1788426;80;21103;-55
2022/12/04 06:51:57;;;;;;;14.90;6.95;;;;;;;-4.37;82.49;102696.55;1770782;80;21099;-56
2022/12/04 06:54:27;;;;;;;13.03;5.97;;;;;;;-4.36;82.47;102701.44;1771238;80;21103;-55
2022/12/04 06:56:56;;;;;;;11.90;6.00;;;;;;;-4.35;82.16;102698.72;1770702;80;21107;-57
2022/12/04 06:59:25;;;;;;;12.15;5.58;;;;;;;-4.34;82.28;102700.93;1788330;80;21538;-55
2022/12/04 07:01:56;;;;;;;12.28;5.85;;;;;;;-4.31;82.19;102706.19;1771143;80;21111;-55
2022/12/04 07:04:25;;;;;;;13.62;6.70;;;;;;;-4.35;81.97;102705.41;1788189;80;21107;-56
2022/12/04 07:06:55;;;;;;;14.78;6.20;;;;;;;-4.38;82.08;102705.50;1788555;80;21091;-55
2022/12/04 07:09:26;;;;;;;14.00;6.75;;;;;;;-4.37;81.76;102704.58;1707234;84;21099;-56
2022/12/04 07:11:56;;;;;;;15.08;6.90;;;;;;;-4.41;81.80;102708.27;1707290;84;21225;-56
2022/12/04 07:14:26;;;;;;;13.13;6.53;;;;;;;-4.38;81.93;102700.14;1707139;84;21111;-56
2022/12/04 07:16:55;;;;;;;17.20;7.12;;;;;;;-4.33;81.82;102708.03;1707168;84;21205;-56
2022/12/04 07:19:25;;;;;;;16.10;7.03;;;;;;;-4.30;81.66;102706.61;1613364;88;21605;-56
2022/12/04 07:21:54;;;;;;;14.47;6.95;;;;;;;-4.30;81.64;102704.80;1707272;84;21586;-55
2022/12/04 07:24:23;;;;;;;15.58;7.42;;;;;;;-4.31;81.60;102700.38;1707153;84;21119;-56
2022/12/04 07:26:53;;;;;;;15.35;6.95;;;;;;;-4.31;81.60;102700.38;1702519;80;21700;-57
2022/12/04 07:29:22;;;;;;;14.93;7.00;;;;;;;-4.31;81.58;102703.05;1788494;80;21091;-56
2022/12/04 07:31:52;;;;;;;15.23;7.78;;;;;;;-4.30;81.68;102699.45;1771073;80;21103;-55
2022/12/04 07:34:21;;;;;;;15.30;6.62;;;;;;;-4.30;81.66;102688.75;1788185;80;21075;-56
2022/12/04 07:36:51;;;;;;;14.38;7.47;;;;;;;-4.25;81.72;102697.97;1788250;80;21221;-57
2022/12/04 07:39:21;;;;;;;16.67;6.85;;;;;;;-4.21;81.64;102693.81;1788398;80;21135;-55
2022/12/04 07:41:51;;;;;;;15.85;6.80;;;;;;;-4.21;81.50;102698.30;1770629;80;21166;-57
2022/12/04 07:44:21;;;;;;;12.13;6.17;;;;;;;-4.20;81.51;102700.92;1788294;80;21162;-56
2022/12/04 07:46:52;;;;;;;12.63;6.33;;;;;;;-4.21;81.36;102704.52;1770887;80;21590;-55
2022/12/04 07:49:22;;;;;;;14.90;6.47;;;;;;;-4.26;81.20;102695.76;1788448;80;21079;-56
2022/12/04 07:51:51;;;;;;;14.30;6.40;;;;;;;-4.25;81.18;102705.54;1788416;80;21545;-55
2022/12/04 07:54:21;;;;;;;11.08;5.92;;;;;;;-4.27;80.87;102695.34;1770508;80;21146;-55
2022/12/04 07:56:50;;;;;;;14.35;6.83;;;;;;;-4.27;80.87;102695.34;1788275;80;21177;-56
2022/12/04 07:59:19;;;;;;;15.03;6.53;;;;;;;-4.24;80.95;102704.62;1788276;80;21118;-55
2022/12/04 08:01:49;;;;;;;13.70;6.92;;;;;;;-4.22;80.78;102709.46;1788213;80;21087;-56
2022/12/04 08:04:18;;;;;;;13.30;6.42;;;;;;;-4.25;80.27;102693.50;1703495;84;21147;-55
2022/12/04 08:06:48;;;;;;;15.98;7.25;;;;;;;-4.32;80.14;102708.45;1679163;84;21162;-55
2022/12/04 08:09:17;;;;;;;14.35;6.53;;;;;;;-4.36;80.27;102704.98;1701850;84;21127;-56
2022/12/04 08:11:48;;;;;;;14.58;6.92;;;;;;;-4.37;80.45;102701.89;1701843;84;21566;-57
2022/12/04 08:14:17;;;;;;;18.07;6.72;;;;;;;-4.35;80.48;102709.88;1701769;84;21147;-56
2022/12/04 08:16:48;;;;;;;15.15;6.97;;;;;;;-4.35;80.44;102710.76;1702052;84;21131;-56
2022/12/04 08:19:21;;;;;;;15.00;6.75;;;;;;;-4.37;80.45;102708.59;1702066;84;21147;-55
2022/12/04 08:21:50;;;;;;;16.17;6.67;;;;;;;-4.34;80.58;102702.27;1722271;80;21147;-55
2022/12/04 08:24:20;;;;;;;14.73;6.72;;;;;;;-4.29;80.64;102705.68;1765529;80;21141;-56
2022/12/04 08:26:49;;;;;;;13.10;6.70;;;;;;;-4.21;80.25;102702.31;1765382;80;21143;-57
2022/12/04 08:29:18;;;;;;;13.57;6.37;;;;;;;-4.21;80.25;102702.31;1785056;80;21107;-56
2022/12/04 08:31:48;;;;;;;12.75;5.72;;;;;;;-4.21;79.99;102699.17;1785121;80;21540;-56
2022/12/04 08:34:18;;;;;;;13.78;6.12;;;;;;;-4.24;79.69;102703.28;1785028;80;21547;-55
2022/12/04 08:36:47;;;;;;;14.45;6.90;;;;;;;-4.24;79.62;102706.42;1785133;80;21198;-56
2022/12/04 08:39:18;;;;;;;13.55;6.17;;;;;;;-4.26;79.53;102693.08;1784931;80;21135;-56
2022/12/04 08:41:47;;;;;;;19.32;6.67;;;;;;;-4.29;79.51;102691.84;1785192;80;21122;-56
2022/12/04 08:44:19;;;;;;;13.72;6.30;;;;;;;-4.25;79.54;102688.14;1784208;80;21530;-55
2022/12/04 08:46:48;;;;;;;14.03;6.83;;;;;;;-4.21;79.63;102696.49;1785100;80;21103;-56
2022/12/04 08:49:20;;;;;;;12.47;6.12;;;;;;;-4.21;79.63;102696.49;1784910;80;21166;-57
2022/12/04 08:51:49;;;;;;;18.32;6.33;;;;;;;-4.19;79.48;102694.65;1784865;80;21110;-56
2022/12/04 08:54:19;;;;;;;12.73;5.80;;;;;;;-4.23;79.28;102697.47;1784982;80;21107;-56
2022/12/04 08:56:49;;;;;;;13.70;6.03;;;;;;;-4.21;79.47;102682.23;1784742;80;21146;-56
2022/12/04 08:59:19;;;;;;;13.80;6.10;;;;;;;-4.21;79.36;102691.14;1784883;80;21083;-56
2022/12/04 09:01:50;;;;;;;11.93;5.85;;;;;;;-4.24;78.99;102682.33;1784969;80;21543;-56
2022/12/04 09:04:20;;;;;;;11.10;5.87;;;;;;;-4.27;78.71;102684.64;1784598;80;21135;-56
2022/12/04 09:06:51;;;;;;;13.03;6.20;;;;;;;-4.33;78.52;102689.30;1763764;80;21565;-55
2022/12/04 09:09:23;;;;;;;10.13;5.25;;;;;;;-4.34;78.71;102685.75;1782922;80;21596;-55
2022/12/04 09:11:53;;;;;;;14.03;6.67;;;;;;;-4.29;78.60;102689.16;1763103;80;21092;-55
2022/12/04 09:14:24;;;;;;;13.88;5.95;;;;;;;-4.28;78.69;102694.93;1762912;80;21107;-56
2022/12/04 09:16:54;;;;;;;11.75;5.75;;;;;;;-4.24;78.65;102692.58;1782841;80;21175;-55
2022/12/04 09:19:23;;;;;;;12.85;5.85;;;;;;;-4.19;78.46;102679.92;1699549;84;21626;-57
2022/12/04 09:21:53;;;;;;;14.63;5.33;;;;;;;-4.19;78.46;102679.92;1699881;84;21186;-55
2022/12/04 09:24:23;;;;;;;12.05;6.55;;;;;;;-4.18;78.42;102687.03;1699427;84;21111;-56
2022/12/04 09:26:53;;;;;;;15.68;6.33;;;;;;;-4.24;78.38;102689.02;1699449;84;21128;-55
2022/12/04 09:29:24;;;;;;;11.18;5.40;;;;;;;-4.28;78.50;102691.37;1699452;84;21154;-56
2022/12/04 09:31:54;;;;;;;11.48;5.37;;;;;;;-4.24;78.65;102689.02;1627177;88;21206;-56
2022/12/04 09:34:27;;;;;;;12.43;6.28;;;;;;;-4.21;78.42;102686.25;1699633;84;21202;-57
2022/12/04 09:36:57;;;;;;;10.85;5.53;;;;;;;-4.22;78.59;102689.39;1706081;80;21127;-59
2022/12/04 09:39:27;;;;;;;11.35;5.50;;;;;;;-4.17;78.36;102680.75;1767324;80;21087;-57
2022/12/04 09:42:17;;;;;;;11.20;5.53;;;;;;;-4.19;78.43;102684.41;1732676;82;21155;-57
2022/12/04 09:45:14;;;;;;;13.75;5.78;;;;;;;-4.22;78.41;102678.69;1751578;82;21111;-56
2022/12/04 09:47:46;;;;;;;10.40;4.75;;;;;;;-4.20;78.69;102681.31;1669721;83;21123;-57
2022/12/04 09:50:41;;;;;;;12.78;6.15;;;;;;;-4.18;78.57;102672.31;1751581;80;21190;-59
2022/12/04 09:53:22;;;;;;;15.15;5.90;;;;;;;-4.17;78.78;102682.09;1751839;82;21212;-58
2022/12/04 09:56:08;;;;;;;16.15;5.80;;;;;;;-4.10;78.37;102676.55;1752173;82;21159;-58
2022/12/04 09:59:10;;;;;;;15.38;5.67;;;;;;;-4.09;78.17;102660.90;1654034;85;21199;-57
2022/12/04 10:01:47;;;;;;;13.28;5.70;;;;;;;-4.05;77.59;102662.09;1654370;87;21265;-57
2022/12/04 10:04:17;;;;;;;14.45;5.60;;;;;;;-4.13;76.95;102660.58;1654212;87;21197;-57
2022/12/04 10:07:34;;;;;;;12.05;6.00;;;;;;;-4.18;77.03;102670.97;1655301;86;21154;-57
2022/12/04 10:10:37;;;;;;;10.75;5.28;;;;;;;-4.15;77.34;102670.00;1656341;86;21210;-57
2022/12/04 10:13:12;;;;;;;12.95;5.53;;;;;;;-4.06;77.22;102655.45;1656123;86;21181;-57
2022/12/04 10:16:00;;;;;;;13.40;5.95;;;;;;;-4.06;76.68;102654.98;1661103;82;21130;-57
2022/12/04 10:18:40;;;;;;;;;;;;;;;-4.06;76.58;102646.95;1756852;82;21544;-59
2022/12/04 10:21:32;;;;;;;16.07;6.22;;;;;;;-4.06;76.17;102638.92;1753930;82;20203;-58
2022/12/04 10:24:19;;;;;;;13.00;6.17;;;;;;;-4.09;75.54;102632.78;1754072;82;21151;-55
2022/12/04 10:26:50;;;;;;;10.43;5.28;;;;;;;-4.10;75.58;102635.92;1754160;81;21150;-56
2022/12/04 10:29:31;;;;;;;16.60;6.05;;;;;;;-4.07;75.75;102634.95;1753873;82;21249;-57
2022/12/04 10:32:34;;;;;;;13.72;6.30;;;;;;;-4.00;75.54;102629.35;1753786;81;21258;-58
2022/12/04 10:35:21;;;;;;;13.00;5.62;;;;;;;-3.95;75.02;102630.54;1754086;82;21490;-58
2022/12/04 10:38:03;;;;;;;14.43;5.58;;;;;;;-3.98;74.40;102631.52;1713181;83;21130;-57
2022/12/04 10:40:45;;;;;;;12.33;5.05;;;;;;;-4.02;74.16;102626.31;1676422;85;21637;-57
2022/12/04 10:43:46;;;;;;;12.68;5.37;;;;;;;-4.04;73.47;102632.17;1660322;85;21178;-62
2022/12/04 10:46:26;;;;;;;10.78;5.22;;;;;;;-4.05;73.67;102627.75;1620634;88;21691;-57
2022/12/04 10:49:05;;;;;;;12.40;5.10;;;;;;;-3.99;73.44;102622.19;1620758;88;21226;-56
2022/12/04 10:51:39;;;;;;;13.28;5.10;;;;;;;-3.95;73.46;102625.19;1600884;88;21195;-57
2022/12/04 10:54:25;;;;;;;12.28;5.20;;;;;;;-3.94;73.22;102614.42;1620884;88;21179;-57
2022/12/04 10:57:07;;;;;;;8.57;3.87;;;;;;;-3.80;72.91;102609.98;1616346;88;21238;-57
2022/12/04 10:59:54;;;;;;;14.73;6.35;;;;;;;-3.80;72.91;102609.98;1673371;84;21587;-56
2022/12/04 11:02:28;;;;;;;13.68;5.37;;;;;;;-3.74;72.73;102603.08;1701830;84;21187;-56
2022/12/04 11:05:06;;;;;;;14.55;4.37;;;;;;;-3.68;72.28;102601.52;1739901;82;21567;-56
2022/12/04 11:07:45;;;;;;;12.68;5.42;;;;;;;-3.62;72.11;102601.78;1744749;82;21136;-57
2022/12/04 11:10:41;;;;;;;12.23;5.10;;;;;;;-3.57;71.91;102594.45;1743565;82;21091;-57
2022/12/04 11:13:17;;;;;;;12.47;4.67;;;;;;;-3.48;71.99;102594.13;1733458;82;21230;-56
2022/12/04 11:15:55;;;;;;;10.58;4.37;;;;;;;-3.41;71.35;102588.09;1708288;84;21122;-56
2022/12/04 11:18:31;;;;;;;13.98;4.85;;;;;;;-3.36;71.23;102588.34;1744014;81;21126;-56
2022/12/04 11:21:04;;;;;;;13.22;4.40;;;;;;;-3.29;71.20;102583.16;1733686;82;21197;-57
2022/12/04 11:23:46;;;;;;;13.18;4.45;;;;;;;-3.22;70.73;102579.83;1744012;82;21156;-57
2022/12/04 11:26:20;;;;;;;9.18;4.35;;;;;;;-3.17;70.29;102576.98;1735139;82;21520;-56
2022/12/04 11:28:52;;;;;;;8.28;3.55;;;;;;;-3.12;70.21;102573.66;1743381;81;21180;-56
2022/12/04 11:31:22;;;;;;;10.00;3.95;;;;;;;-3.07;70.01;102577.92;1758352;81;21136;-56
2022/12/04 11:33:57;;;;;;;9.58;3.98;;;;;;;-3.03;69.45;102580.02;1744259;82;21541;-56
2022/12/04 11:36:39;;;;;;;12.20;3.30;;;;;;;-3.01;69.36;102580.38;1733735;82;21171;-56
2022/12/04 11:39:19;;;;;;;10.70;3.83;;;;;;;-2.98;69.03;102578.05;1744292;82;21082;-56
2022/12/04 11:42:15;;;;;;;9.00;3.52;;;;;;;-2.94;68.78;102579.67;1744148;81;21105;-56
2022/12/04 11:45:19;;;;;;;7.58;3.10;;;;;;;-2.94;68.47;102572.50;1743813;81;21223;-57
2022/12/04 11:47:58;;;;;;;6.22;3.17;;;;;;;-2.90;68.34;102575.95;1748390;81;21123;-57
2022/12/04 11:50:39;;;;;;;8.30;3.10;;;;;;;-2.85;68.22;102573.09;1743864;82;21121;-56
2022/12/04 11:53:23;;;;;;;8.20;2.75;;;;;;;-2.81;68.03;102568.89;1743868;82;21132;-56
2022/12/04 11:56:07;;;;;;;13.68;4.17;;;;;;;-2.77;67.86;102565.16;1744114;81;21156;-56
2022/12/04 11:58:43;;;;;;;8.35;3.35;;;;;;;-2.73;67.43;102570.81;1743790;81;21144;-57
2022/12/04 12:01:42;;;;;;;7.35;3.80;;;;;;;-2.70;67.44;102556.40;1744321;81;21145;-57
2022/12/04 12:04:17;;;;;;;;;;;;;;;-2.65;67.34;102561.13;1746540;82;21109;-55
2022/12/04 12:07:44;;;;;;;9.58;3.25;;;;;;;-2.63;66.78;102559.25;1769275;79;20133;-57
2022/12/04 12:11:00;;;;;;;12.75;3.45;;;;;;;-2.64;66.55;102559.72;1629499;88;21337;-55